Time;durP1;ratioP1;P1;durP2;ratioP2;P2;SDS_P1;SDS_P2;PMS_P1;PMS_P2;Temp;Humidity;BMP_temperature;BMP_pressure;BME280_temperature;BME280_humidity;BME280_pressure;Samples;Min_cycle;Max_cycle;Signal;HPM_P1;HPM_P2
2021/12/23 00:02:01;;;;;;;13.88;8.27;;;;;;;;;;5094396;28;20024;-69
2021/12/23 00:04:27;;;;;;;14.82;8.45;;;;;;;;;;5094277;28;20055;-65
2021/12/23 00:06:53;;;;;;;13.75;8.55;;;;;;;;;;5094277;28;20024;-66
2021/12/23 00:09:21;;;;;;;14.38;8.68;;;;;;;;;;5094116;28;20373;-66
2021/12/23 00:11:47;;;;;;;15.23;8.88;;;;;;;;;;5094256;28;20017;-66
2021/12/23 00:14:14;;;;;;;13.07;8.32;;;;;;;;;;5094382;28;20028;-67
2021/12/23 00:16:55;;;;;;;15.85;9.50;;;;;;;;;;5094277;28;20492;-65
2021/12/23 00:24:33;;;;;;;15.70;9.10;;;;;;;;;;5094342;28;20023;-66
2021/12/23 00:27:00;;;;;;;14.70;9.15;;;;;;;;;;5092830;28;20039;-70
2021/12/23 00:29:26;;;;;;;13.73;8.55;;;;;;;;;;5094135;28;20020;-66
2021/12/23 00:31:52;;;;;;;14.25;9.10;;;;;;;;;;5094093;28;20028;-65
2021/12/23 00:34:18;;;;;;;15.10;9.20;;;;;;;;;;5092563;28;20015;-65
2021/12/23 00:36:46;;;;;;;14.77;8.82;;;;;;;;;;5093824;28;20034;-66
2021/12/23 00:39:13;;;;;;;14.23;9.20;;;;;;;;;;5093644;28;20130;-65
2021/12/23 00:41:41;;;;;;;13.10;8.35;;;;;;;;;;5094354;28;20358;-66
2021/12/23 00:44:08;;;;;;;14.10;8.77;;;;;;;;;;5093728;28;20024;-65
2021/12/23 00:46:34;;;;;;;15.02;8.40;;;;;;;;;;5092753;28;20077;-65
2021/12/23 00:49:00;;;;;;;15.07;9.98;;;;;;;;;;5091078;28;20139;-66
2021/12/23 00:51:26;;;;;;;13.35;8.65;;;;;;;;;;5092263;28;20477;-66
2021/12/23 00:54:02;;;;;;;12.63;8.90;;;;;;;;;;5092334;28;20442;-69
2021/12/23 00:56:28;;;;;;;13.73;8.50;;;;;;;;;;5093043;28;20645;-69
2021/12/23 00:58:54;;;;;;;13.40;8.82;;;;;;;;;;5093410;28;20492;-68
2021/12/23 01:01:21;;;;;;;13.90;8.90;;;;;;;;;;5093580;28;20048;-69
2021/12/23 01:03:47;;;;;;;14.45;9.13;;;;;;;;;;5093634;28;20024;-67
2021/12/23 01:06:13;;;;;;;13.98;8.32;;;;;;;;;;5093917;28;20016;-69
2021/12/23 01:08:39;;;;;;;15.13;9.52;;;;;;;;;;5093352;28;20020;-69
2021/12/23 01:11:05;;;;;;;13.55;8.68;;;;;;;;;;5093683;28;20039;-69
2021/12/23 01:13:31;;;;;;;15.18;8.60;;;;;;;;;;5092755;28;20027;-71
2021/12/23 01:16:08;;;;;;;14.32;9.35;;;;;;;;;;5093675;28;20127;-71
2021/12/23 01:18:41;;;;;;;15.13;9.00;;;;;;;;;;5093200;28;20024;-70
2021/12/23 01:21:17;;;;;;;14.25;9.30;;;;;;;;;;5093570;28;20070;-66
2021/12/23 01:23:44;;;;;;;14.68;9.13;;;;;;;;;;5093563;28;20023;-70
2021/12/23 01:26:12;;;;;;;16.90;9.45;;;;;;;;;;5091901;28;20781;-69
2021/12/23 01:28:38;;;;;;;15.35;9.30;;;;;;;;;;5092592;28;20028;-67
2021/12/23 01:31:04;;;;;;;13.80;8.68;;;;;;;;;;5092915;28;20046;-70
2021/12/23 01:33:30;;;;;;;15.65;9.43;;;;;;;;;;5087483;28;20020;-67
2021/12/23 01:35:56;;;;;;;13.23;8.93;;;;;;;;;;5072661;28;20020;-69
2021/12/23 01:38:22;;;;;;;13.35;8.55;;;;;;;;;;5072413;28;20032;-67
2021/12/23 01:40:48;;;;;;;14.57;9.05;;;;;;;;;;5072505;28;20527;-68
2021/12/23 01:43:17;;;;;;;14.90;9.02;;;;;;;;;;5071665;28;20029;-68
2021/12/23 01:45:44;;;;;;;14.68;9.20;;;;;;;;;;5072763;28;20017;-68
2021/12/23 01:48:11;;;;;;;14.85;9.38;;;;;;;;;;5072280;28;20028;-69
2021/12/23 01:50:39;;;;;;;13.18;8.57;;;;;;;;;;5072343;28;20043;-69
2021/12/23 01:53:05;;;;;;;14.88;9.15;;;;;;;;;;5072282;28;20028;-67
2021/12/23 01:55:31;;;;;;;16.42;10.05;;;;;;;;;;5069955;28;20020;-69
2021/12/23 01:57:58;;;;;;;15.05;9.30;;;;;;;;;;5071002;28;20021;-66
2021/12/23 02:00:25;;;;;;;14.30;9.45;;;;;;;;;;5071937;28;20064;-70
2021/12/23 02:02:52;;;;;;;14.25;9.23;;;;;;;;;;5087615;28;20033;-67
2021/12/23 02:05:18;;;;;;;14.43;9.02;;;;;;;;;;5086528;28;20508;-66
2021/12/23 02:07:45;;;;;;;15.48;9.48;;;;;;;;;;5074869;28;20498;-69
2021/12/23 02:10:11;;;;;;;12.88;8.52;;;;;;;;;;5092444;28;20020;-68
2021/12/23 02:12:37;;;;;;;17.17;9.65;;;;;;;;;;5092210;28;20500;-65
2021/12/23 02:15:04;;;;;;;37.92;9.63;;;;;;;;;;5092070;28;20527;-65
2021/12/23 02:17:30;;;;;;;24.80;9.27;;;;;;;;;;5092294;28;20028;-63
2021/12/23 02:19:56;;;;;;;15.32;9.95;;;;;;;;;;5091969;28;20028;-63
2021/12/23 02:22:22;;;;;;;18.17;9.63;;;;;;;;;;5092100;28;20375;-65
2021/12/23 02:24:48;;;;;;;18.73;10.20;;;;;;;;;;5092147;28;20535;-63
2021/12/23 02:27:14;;;;;;;17.42;9.63;;;;;;;;;;5090975;28;20028;-63
2021/12/23 02:29:40;;;;;;;15.73;9.80;;;;;;;;;;5091938;28;20048;-64
2021/12/23 02:32:07;;;;;;;15.48;9.10;;;;;;;;;;5092303;28;20020;-64
2021/12/23 02:34:33;;;;;;;18.05;10.57;;;;;;;;;;5077415;28;20032;-64
2021/12/23 02:37:00;;;;;;;16.35;10.23;;;;;;;;;;5071552;28;20020;-65
2021/12/23 02:39:27;;;;;;;14.57;9.77;;;;;;;;;;5071554;28;20547;-64
2021/12/23 02:41:53;;;;;;;14.80;9.25;;;;;;;;;;5069851;28;20556;-66
2021/12/23 02:44:19;;;;;;;14.98;8.93;;;;;;;;;;5071343;28;20036;-64
2021/12/23 02:46:46;;;;;;;16.15;10.10;;;;;;;;;;5071368;28;20051;-63
2021/12/23 02:49:12;;;;;;;16.25;9.35;;;;;;;;;;5071254;28;20052;-66
2021/12/23 02:51:39;;;;;;;17.13;9.40;;;;;;;;;;5071357;28;20214;-66
2021/12/23 02:54:05;;;;;;;16.90;10.00;;;;;;;;;;5070178;28;20064;-65
2021/12/23 02:56:31;;;;;;;22.90;10.02;;;;;;;;;;5071442;28;20027;-66
2021/12/23 02:58:57;;;;;;;16.15;9.55;;;;;;;;;;5070179;28;20497;-65
2021/12/23 03:01:24;;;;;;;20.27;10.57;;;;;;;;;;5071507;28;20024;-66
2021/12/23 03:03:50;;;;;;;13.55;9.07;;;;;;;;;;5071518;28;20099;-65
2021/12/23 03:06:21;;;;;;;15.75;10.02;;;;;;;;;;5069797;28;20516;-65
2021/12/23 03:08:51;;;;;;;19.05;10.35;;;;;;;;;;5070450;28;20024;-63
2021/12/23 03:11:19;;;;;;;15.20;9.50;;;;;;;;;;5070382;28;20039;-64
2021/12/23 03:13:45;;;;;;;18.55;10.48;;;;;;;;;;5071926;28;20036;-62
2021/12/23 03:16:15;;;;;;;19.25;10.63;;;;;;;;;;5071756;28;20045;-62
2021/12/23 03:18:41;;;;;;;16.42;10.48;;;;;;;;;;5071786;28;20076;-64
2021/12/23 03:21:07;;;;;;;15.93;9.57;;;;;;;;;;5071879;28;20024;-63
2021/12/23 03:23:34;;;;;;;15.70;10.10;;;;;;;;;;5071678;28;20021;-64
2021/12/23 03:26:00;;;;;;;18.60;10.82;;;;;;;;;;5071496;28;20029;-64
2021/12/23 03:28:28;;;;;;;16.83;10.77;;;;;;;;;;5071139;28;20116;-66
2021/12/23 03:30:54;;;;;;;18.33;10.35;;;;;;;;;;5071270;28;20009;-64
2021/12/23 03:33:20;;;;;;;15.70;10.55;;;;;;;;;;5071482;28;20082;-65
2021/12/23 03:35:47;;;;;;;18.52;10.35;;;;;;;;;;5071363;28;20017;-64
2021/12/23 03:38:13;;;;;;;16.90;10.85;;;;;;;;;;5071124;28;20025;-66
2021/12/23 03:40:39;;;;;;;16.40;10.38;;;;;;;;;;5069731;28;20025;-65
2021/12/23 03:43:05;;;;;;;17.92;11.07;;;;;;;;;;5071785;28;20054;-67
2021/12/23 03:45:31;;;;;;;17.05;11.05;;;;;;;;;;5071735;28;20021;-66
2021/12/23 03:47:57;;;;;;;18.90;11.00;;;;;;;;;;5071587;28;20025;-65
2021/12/23 03:50:24;;;;;;;17.70;11.30;;;;;;;;;;5070180;28;20025;-66
2021/12/23 03:52:52;;;;;;;18.30;11.63;;;;;;;;;;5071475;28;20032;-65
2021/12/23 03:55:19;;;;;;;18.60;11.90;;;;;;;;;;5071408;28;20027;-64
2021/12/23 03:57:46;;;;;;;17.67;11.18;;;;;;;;;;5071410;28;20024;-65
2021/12/23 04:00:13;;;;;;;20.05;12.35;;;;;;;;;;5071384;28;20043;-66
2021/12/23 04:02:39;;;;;;;19.38;11.68;;;;;;;;;;5071539;28;20025;-67
2021/12/23 04:05:08;;;;;;;18.38;11.65;;;;;;;;;;5071551;28;20107;-67
2021/12/23 04:07:35;;;;;;;16.83;10.98;;;;;;;;;;5071217;28;20031;-67
2021/12/23 04:10:01;;;;;;;18.77;11.93;;;;;;;;;;5070015;28;20016;-66
2021/12/23 04:12:27;;;;;;;17.40;11.20;;;;;;;;;;5071297;28;20024;-67
2021/12/23 04:14:53;;;;;;;18.10;11.60;;;;;;;;;;5071006;28;20491;-67
2021/12/23 04:17:19;;;;;;;17.88;12.18;;;;;;;;;;5071169;28;20107;-67
2021/12/23 04:19:47;;;;;;;18.73;11.82;;;;;;;;;;5072948;28;20036;-67
2021/12/23 04:22:13;;;;;;;17.38;11.80;;;;;;;;;;5074843;28;20070;-67
2021/12/23 04:24:39;;;;;;;20.55;12.73;;;;;;;;;;5074833;28;20496;-67
2021/12/23 04:27:06;;;;;;;17.23;11.90;;;;;;;;;;5074739;28;20024;-69
2021/12/23 04:29:32;;;;;;;19.65;12.02;;;;;;;;;;5074583;28;20103;-65
2021/12/23 04:31:59;;;;;;;19.75;12.45;;;;;;;;;;5074605;28;20020;-64
2021/12/23 04:34:26;;;;;;;18.77;12.00;;;;;;;;;;5074656;28;20107;-64
2021/12/23 04:36:52;;;;;;;17.38;11.10;;;;;;;;;;5074615;28;20078;-65
2021/12/23 04:39:18;;;;;;;18.48;11.93;;;;;;;;;;5073541;28;20059;-64
2021/12/23 04:41:44;;;;;;;19.92;12.75;;;;;;;;;;5074198;28;20025;-64
2021/12/23 04:44:10;;;;;;;17.40;12.23;;;;;;;;;;5073065;28;20074;-66
2021/12/23 04:46:36;;;;;;;17.45;12.15;;;;;;;;;;5074214;28;20024;-65
2021/12/23 04:49:02;;;;;;;18.73;11.45;;;;;;;;;;5074263;28;20029;-65
2021/12/23 04:51:29;;;;;;;20.30;12.60;;;;;;;;;;5074061;28;20553;-65
2021/12/23 04:53:55;;;;;;;20.85;12.73;;;;;;;;;;5072929;28;20029;-66
2021/12/23 04:56:21;;;;;;;18.25;12.50;;;;;;;;;;5072401;28;20366;-64
2021/12/23 04:58:47;;;;;;;19.45;12.02;;;;;;;;;;5073736;28;20082;-64
2021/12/23 05:01:21;;;;;;;19.48;12.23;;;;;;;;;;5073945;28;20031;-66
2021/12/23 05:03:48;;;;;;;19.23;13.13;;;;;;;;;;5073933;28;20111;-64
2021/12/23 05:06:15;;;;;;;21.30;13.07;;;;;;;;;;5073839;28;20021;-62
2021/12/23 05:08:41;;;;;;;19.08;12.65;;;;;;;;;;5072442;28;20035;-62
2021/12/23 05:11:07;;;;;;;17.42;12.45;;;;;;;;;;5073920;28;20380;-62
2021/12/23 05:13:34;;;;;;;20.67;12.48;;;;;;;;;;5073572;28;20044;-66
2021/12/23 05:16:00;;;;;;;19.58;13.77;;;;;;;;;;5073232;28;20053;-65
2021/12/23 05:18:26;;;;;;;20.80;13.27;;;;;;;;;;5073109;28;20115;-65
2021/12/23 05:20:52;;;;;;;20.38;12.80;;;;;;;;;;5073257;28;20056;-63
2021/12/23 05:23:18;;;;;;;22.83;13.00;;;;;;;;;;5073175;28;20027;-65
2021/12/23 05:25:44;;;;;;;20.58;12.77;;;;;;;;;;5073035;28;20033;-65
2021/12/23 05:28:10;;;;;;;19.25;12.70;;;;;;;;;;5072905;28;20028;-66
2021/12/23 05:30:36;;;;;;;20.40;13.43;;;;;;;;;;5072787;28;20507;-68
2021/12/23 05:33:03;;;;;;;20.40;13.40;;;;;;;;;;5072781;28;20077;-64
2021/12/23 05:35:29;;;;;;;19.23;12.32;;;;;;;;;;5072809;28;20380;-68
2021/12/23 05:37:55;;;;;;;21.05;13.38;;;;;;;;;;5072528;28;20423;-66
2021/12/23 05:40:22;;;;;;;20.80;12.45;;;;;;;;;;5071157;28;20039;-66
2021/12/23 05:42:49;;;;;;;22.98;13.07;;;;;;;;;;5072978;28;20050;-65
2021/12/23 05:45:16;;;;;;;17.65;12.15;;;;;;;;;;5072962;28;20040;-64
2021/12/23 05:47:42;;;;;;;18.73;12.65;;;;;;;;;;5071583;28;20074;-67
2021/12/23 05:50:10;;;;;;;21.50;12.80;;;;;;;;;;5072968;28;20436;-67
2021/12/23 05:52:37;;;;;;;19.58;12.93;;;;;;;;;;5073141;28;20051;-64
2021/12/23 05:55:04;;;;;;;18.17;11.82;;;;;;;;;;5073019;28;20029;-64
2021/12/23 05:57:30;;;;;;;19.95;12.73;;;;;;;;;;5072741;28;20020;-64
2021/12/23 05:59:57;;;;;;;21.13;12.77;;;;;;;;;;5072701;28;20033;-63
2021/12/23 06:02:23;;;;;;;19.80;13.70;;;;;;;;;;5072913;28;20086;-64
2021/12/23 06:04:49;;;;;;;19.92;13.15;;;;;;;;;;5072875;28;20108;-65
2021/12/23 06:07:15;;;;;;;20.15;13.15;;;;;;;;;;5072698;28;20047;-66
2021/12/23 06:09:41;;;;;;;24.15;13.68;;;;;;;;;;5072679;28;20025;-65
2021/12/23 06:12:07;;;;;;;18.10;12.32;;;;;;;;;;5072357;28;20112;-65
2021/12/23 06:14:33;;;;;;;18.88;12.70;;;;;;;;;;5072195;28;20028;-64
2021/12/23 06:17:01;;;;;;;20.65;13.63;;;;;;;;;;5071894;28;20042;-63
2021/12/23 06:19:27;;;;;;;19.25;12.90;;;;;;;;;;5071699;28;20097;-67
2021/12/23 06:21:53;;;;;;;18.35;12.77;;;;;;;;;;5071583;28;20029;-64
2021/12/23 06:24:19;;;;;;;17.92;11.50;;;;;;;;;;5071062;28;20024;-66
2021/12/23 06:26:46;;;;;;;18.42;12.10;;;;;;;;;;5071534;28;20025;-63
2021/12/23 06:29:12;;;;;;;16.92;12.00;;;;;;;;;;5071490;28;20507;-63
2021/12/23 06:31:38;;;;;;;17.55;12.27;;;;;;;;;;5080642;28;20028;-62
2021/12/23 06:34:04;;;;;;;19.40;12.57;;;;;;;;;;5090548;28;20102;-70
2021/12/23 06:36:30;;;;;;;19.27;12.27;;;;;;;;;;5090694;28;20488;-62
2021/12/23 06:38:56;;;;;;;19.00;12.80;;;;;;;;;;5081857;28;20519;-66
2021/12/23 06:41:22;;;;;;;18.67;11.85;;;;;;;;;;5070355;28;20070;-66
2021/12/23 06:43:48;;;;;;;19.52;12.60;;;;;;;;;;5071633;28;20081;-67
2021/12/23 06:46:14;;;;;;;19.55;12.30;;;;;;;;;;5070359;28;20476;-66
2021/12/23 06:48:40;;;;;;;20.63;13.68;;;;;;;;;;5072037;28;20033;-66
2021/12/23 06:51:06;;;;;;;19.95;12.73;;;;;;;;;;5070565;28;20067;-66
2021/12/23 06:53:32;;;;;;;17.58;11.93;;;;;;;;;;5071831;28;20059;-67
2021/12/23 06:56:00;;;;;;;20.67;12.90;;;;;;;;;;5070784;28;20029;-66
2021/12/23 06:58:26;;;;;;;18.83;12.43;;;;;;;;;;5071561;28;20038;-65
2021/12/23 07:00:53;;;;;;;17.42;12.23;;;;;;;;;;5071226;28;20024;-65
2021/12/23 07:03:20;;;;;;;15.00;10.10;;;;;;;;;;5069940;28;20461;-65
2021/12/23 07:05:51;;;;;;;15.07;9.50;;;;;;;;;;5071291;28;20425;-65
2021/12/23 07:08:29;;;;;;;14.50;9.63;;;;;;;;;;5071386;28;20445;-66
2021/12/23 07:10:55;;;;;;;15.38;9.98;;;;;;;;;;5070403;28;20147;-66
2021/12/23 07:13:21;;;;;;;16.48;9.82;;;;;;;;;;5071798;28;20063;-64
2021/12/23 07:15:48;;;;;;;16.65;9.95;;;;;;;;;;5071413;28;20115;-70
2021/12/23 07:18:14;;;;;;;15.30;9.52;;;;;;;;;;5071673;28;20465;-65
2021/12/23 07:20:40;;;;;;;17.27;10.52;;;;;;;;;;5071495;28;20381;-65
2021/12/23 07:23:06;;;;;;;13.85;9.02;;;;;;;;;;5071705;28;20021;-71
2021/12/23 07:25:32;;;;;;;15.45;10.20;;;;;;;;;;5071507;28;20095;-65
2021/12/23 07:27:58;;;;;;;14.18;9.38;;;;;;;;;;5071578;28;20021;-65
2021/12/23 07:30:24;;;;;;;16.48;9.65;;;;;;;;;;5070179;28;20020;-64
2021/12/23 07:32:51;;;;;;;15.63;9.80;;;;;;;;;;5070311;28;20119;-65
2021/12/23 07:35:18;;;;;;;16.67;10.68;;;;;;;;;;5071543;28;20066;-65
2021/12/23 07:37:45;;;;;;;13.18;9.00;;;;;;;;;;5070038;28;20099;-65
2021/12/23 07:40:16;;;;;;;13.75;8.90;;;;;;;;;;5071457;28;20044;-65
2021/12/23 07:42:52;;;;;;;15.45;9.60;;;;;;;;;;5071466;28;20016;-64
2021/12/23 07:45:19;;;;;;;13.35;9.07;;;;;;;;;;5071218;28;20035;-65
2021/12/23 07:47:45;;;;;;;12.82;8.13;;;;;;;;;;5071415;28;20021;-66
2021/12/23 07:50:11;;;;;;;13.90;8.82;;;;;;;;;;5071434;28;20070;-68
2021/12/23 07:52:38;;;;;;;13.77;7.68;;;;;;;;;;5071335;28;20477;-69
2021/12/23 07:55:04;;;;;;;12.18;8.38;;;;;;;;;;5075151;28;20028;-69
2021/12/23 07:57:30;;;;;;;13.93;8.63;;;;;;;;;;5075286;28;20020;-71
2021/12/23 07:59:58;;;;;;;13.40;9.10;;;;;;;;;;5075353;28;20123;-67
2021/12/23 08:02:24;;;;;;;14.13;8.57;;;;;;;;;;5075125;28;20013;-69
2021/12/23 08:04:50;;;;;;;18.67;9.65;;;;;;;;;;5075143;28;20056;-66
2021/12/23 08:07:16;;;;;;;13.73;8.85;;;;;;;;;;5074843;28;20039;-68
2021/12/23 08:09:42;;;;;;;15.32;8.70;;;;;;;;;;5073470;28;20036;-69
2021/12/23 08:12:08;;;;;;;13.45;8.50;;;;;;;;;;5072861;28;20039;-68
2021/12/23 08:14:35;;;;;;;15.60;9.30;;;;;;;;;;5073725;28;20032;-71
2021/12/23 08:17:01;;;;;;;15.85;9.80;;;;;;;;;;5074911;28;20049;-68
2021/12/23 08:19:27;;;;;;;13.23;8.85;;;;;;;;;;5074722;28;20043;-66
2021/12/23 08:21:53;;;;;;;15.15;8.43;;;;;;;;;;5074876;28;20361;-67
2021/12/23 08:24:19;;;;;;;13.43;8.18;;;;;;;;;;5074846;28;20046;-67
2021/12/23 08:26:51;;;;;;;12.38;7.80;;;;;;;;;;5074716;28;20029;-68
2021/12/23 08:29:19;;;;;;;16.90;9.07;;;;;;;;;;5074794;28;20431;-66
2021/12/23 08:31:45;;;;;;;12.30;7.47;;;;;;;;;;5074556;28;20302;-65
2021/12/23 08:34:11;;;;;;;13.38;8.23;;;;;;;;;;5074189;28;20104;-64
2021/12/23 08:36:37;;;;;;;13.25;7.40;;;;;;;;;;5082768;28;20020;-62
2021/12/23 08:39:03;;;;;;;16.38;7.93;;;;;;;;;;5078830;28;20073;-65
2021/12/23 08:41:29;;;;;;;15.07;8.38;;;;;;;;;;5073878;28;20024;-62
2021/12/23 08:43:56;;;;;;;12.00;7.20;;;;;;;;;;5072826;28;20070;-62
2021/12/23 08:46:22;;;;;;;13.60;8.43;;;;;;;;;;5072787;28;20025;-67
2021/12/23 08:48:48;;;;;;;11.02;6.68;;;;;;;;;;5080578;28;20583;-69
2021/12/23 08:51:14;;;;;;;13.20;7.07;;;;;;;;;;5094075;28;20543;-70
2021/12/23 08:53:40;;;;;;;13.02;7.25;;;;;;;;;;5079910;28;20075;-67
2021/12/23 08:56:08;;;;;;;18.85;7.68;;;;;;;;;;5073549;28;20020;-69
2021/12/23 08:58:35;;;;;;;14.98;8.38;;;;;;;;;;5073376;28;20020;-70
2021/12/23 09:01:01;;;;;;;13.95;8.27;;;;;;;;;;5073642;28;20028;-70
2021/12/23 09:03:31;;;;;;;12.77;8.23;;;;;;;;;;5072141;28;20074;-69
2021/12/23 09:05:58;;;;;;;13.50;7.03;;;;;;;;;;5073460;28;20032;-71
2021/12/23 09:08:25;;;;;;;12.55;7.85;;;;;;;;;;5073522;28;20021;-71
2021/12/23 09:10:52;;;;;;;13.77;8.25;;;;;;;;;;5073592;28;20024;-70
2021/12/23 09:13:18;;;;;;;12.82;7.30;;;;;;;;;;5073584;28;20607;-70
2021/12/23 09:15:45;;;;;;;12.95;8.32;;;;;;;;;;5073084;28;20053;-70
2021/12/23 09:18:11;;;;;;;11.80;6.78;;;;;;;;;;5072214;28;20025;-69
2021/12/23 09:20:37;;;;;;;11.77;7.10;;;;;;;;;;5073272;28;20263;-68
2021/12/23 09:23:06;;;;;;;12.35;7.15;;;;;;;;;;5072066;28;20078;-70
2021/12/23 09:25:33;;;;;;;12.35;7.70;;;;;;;;;;5073437;28;20020;-69
2021/12/23 09:28:50;;;;;;;12.05;7.75;;;;;;;;;;5073267;28;20020;-69
2021/12/23 09:33:37;;;;;;;10.90;7.28;;;;;;;;;;5073144;28;20063;-69
2021/12/23 09:36:04;;;;;;;14.63;7.35;;;;;;;;;;5072972;28;20033;-70
2021/12/23 09:38:30;;;;;;;11.02;5.75;;;;;;;;;;5072837;28;20032;-69
2021/12/23 09:41:01;;;;;;;12.27;8.52;;;;;;;;;;5074682;28;20043;-69
2021/12/23 09:43:28;;;;;;;10.18;6.60;;;;;;;;;;5093190;28;20016;-68
2021/12/23 09:45:54;;;;;;;10.57;6.93;;;;;;;;;;5093100;28;20032;-71
2021/12/23 09:48:21;;;;;;;12.68;7.70;;;;;;;;;;5079510;28;20017;-64
2021/12/23 09:50:48;;;;;;;11.40;6.22;;;;;;;;;;5086164;28;20035;-70
2021/12/23 09:53:16;;;;;;;10.70;6.55;;;;;;;;;;5092539;28;20069;-67
2021/12/23 09:55:42;;;;;;;11.20;7.25;;;;;;;;;;5072366;28;20043;-68
2021/12/23 09:58:08;;;;;;;9.23;6.15;;;;;;;;;;5071376;28;20024;-68
2021/12/23 10:00:36;;;;;;;12.65;6.20;;;;;;;;;;5072102;28;20095;-68
2021/12/23 10:03:03;;;;;;;12.95;7.07;;;;;;;;;;5072313;28;20136;-65
2021/12/23 10:05:30;;;;;;;11.40;6.45;;;;;;;;;;5074568;28;20024;-69
2021/12/23 10:07:57;;;;;;;9.93;6.70;;;;;;;;;;5072244;28;20027;-69
2021/12/23 10:10:33;;;;;;;10.65;6.13;;;;;;;;;;5071761;28;20070;-69
2021/12/23 10:28:21;;;;;;;20.48;6.13;;;;;;;;;;5072140;28;20040;-67
2021/12/23 10:32:55;;;;;;;11.20;6.80;;;;;;;;;;5072268;28;20567;-65
2021/12/23 10:38:19;;;;;;;10.90;6.43;;;;;;;;;;5072003;28;20086;-66
2021/12/23 10:40:47;;;;;;;8.48;5.30;;;;;;;;;;5071700;28;20031;-71
2021/12/23 10:43:27;;;;;;;10.05;5.93;;;;;;;;;;5071628;28;20021;-70
2021/12/23 10:45:58;;;;;;;10.38;6.43;;;;;;;;;;5071869;28;20028;-70
2021/12/23 10:48:30;;;;;;;10.20;5.55;;;;;;;;;;5070683;28;20052;-68
2021/12/23 10:51:02;;;;;;;9.60;5.60;;;;;;;;;;5071943;28;20115;-69
2021/12/23 10:59:12;;;;;;;13.32;6.13;;;;;;;;;;5091694;28;20039;-65
2021/12/23 11:01:59;;;;;;;12.80;6.03;;;;;;;;;;5089095;28;20112;-71
2021/12/23 11:04:25;;;;;;;12.30;5.35;;;;;;;;;;5078810;28;20036;-73
2021/12/23 11:07:06;;;;;;;12.35;5.95;;;;;;;;;;5090569;28;20513;-73
2021/12/23 11:09:40;;;;;;;14.80;6.25;;;;;;;;;;5087661;28;20024;-75
2021/12/23 11:37:44;;;;;;;10.35;5.00;;;;;;;;;;5039800;28;20036;-73
2021/12/23 11:45:34;;;;;;;11.20;4.85;;;;;;;;;;5095588;28;20028;-77
2021/12/23 11:48:04;;;;;;;11.15;5.00;;;;;;;;;;5095268;28;20024;-69
2021/12/23 11:50:41;;;;;;;9.77;4.82;;;;;;;;;;5095580;28;20012;-76
2021/12/23 11:53:08;;;;;;;8.38;4.10;;;;;;;;;;5095412;28;20127;-70
2021/12/23 11:55:35;;;;;;;8.52;4.40;;;;;;;;;;5095365;28;20022;-66
2021/12/23 11:58:01;;;;;;;8.75;4.30;;;;;;;;;;5095255;28;20020;-72
2021/12/23 12:00:42;;;;;;;8.27;4.13;;;;;;;;;;5094946;28;20036;-75
2021/12/23 12:03:09;;;;;;;12.95;4.63;;;;;;;;;;5095027;28;20099;-64
2021/12/23 12:05:35;;;;;;;8.65;3.97;;;;;;;;;;5094720;28;20024;-71
2021/12/23 12:08:12;;;;;;;6.82;3.80;;;;;;;;;;5093637;28;20027;-65
2021/12/23 12:10:41;;;;;;;6.05;3.65;;;;;;;;;;5095111;28;20028;-69
2021/12/23 12:13:08;;;;;;;9.30;3.88;;;;;;;;;;5095628;28;20054;-73
2021/12/23 12:15:42;;;;;;;10.43;4.65;;;;;;;;;;5094886;28;20062;-65
2021/12/23 12:18:09;;;;;;;5.88;3.47;;;;;;;;;;5094807;28;20085;-63
2021/12/23 12:20:51;;;;;;;6.30;3.53;;;;;;;;;;5094798;28;20032;-71
2021/12/23 12:23:22;;;;;;;7.67;4.10;;;;;;;;;;5094725;28;20016;-73
2021/12/23 12:25:53;;;;;;;6.97;3.75;;;;;;;;;;5093603;28;20262;-67
2021/12/23 12:28:29;;;;;;;6.22;3.45;;;;;;;;;;5094765;28;20021;-75
2021/12/23 12:30:58;;;;;;;6.93;3.75;;;;;;;;;;5093218;28;20035;-69
2021/12/23 12:33:24;;;;;;;6.53;3.58;;;;;;;;;;5094601;28;20059;-76
2021/12/23 12:35:50;;;;;;;6.63;3.40;;;;;;;;;;5094220;28;20012;-66
2021/12/23 12:38:20;;;;;;;6.53;3.50;;;;;;;;;;5093368;28;20028;-75
2021/12/23 12:40:58;;;;;;;8.43;3.85;;;;;;;;;;5093301;28;20089;-86
2021/12/23 12:46:14;;;;;;;10.20;4.00;;;;;;;;;;5093536;28;20838;-72
2021/12/23 12:48:56;;;;;;;8.27;3.88;;;;;;;;;;5093415;28;20031;-72
2021/12/23 12:51:24;;;;;;;9.50;3.42;;;;;;;;;;5093685;28;20031;-77
2021/12/23 12:53:51;;;;;;;9.93;3.17;;;;;;;;;;5093026;28;20024;-80
2021/12/23 12:56:21;;;;;;;6.93;3.20;;;;;;;;;;5094194;28;20028;-75
2021/12/23 12:58:51;;;;;;;7.30;3.28;;;;;;;;;;5089010;28;20075;-71
2021/12/23 13:01:29;;;;;;;10.68;3.38;;;;;;;;;;5074148;28;20025;-74
2021/12/23 13:03:55;;;;;;;6.78;2.67;;;;;;;;;;5073985;28;20020;-64
2021/12/23 13:06:21;;;;;;;7.30;3.13;;;;;;;;;;5090843;28;20477;-65
2021/12/23 13:08:48;;;;;;;6.90;3.00;;;;;;;;;;5092587;28;20149;-76
2021/12/23 13:11:16;;;;;;;6.63;3.38;;;;;;;;;;5092752;28;20020;-74
2021/12/23 13:13:45;;;;;;;6.07;3.05;;;;;;;;;;5094239;28;20020;-74
2021/12/23 13:16:12;;;;;;;6.60;3.30;;;;;;;;;;5093833;28;20511;-68
2021/12/23 13:18:38;;;;;;;6.22;3.70;;;;;;;;;;5093912;28;20024;-83
2021/12/23 13:21:06;;;;;;;11.20;3.22;;;;;;;;;;5092967;28;20085;-66
2021/12/23 13:23:45;;;;;;;8.98;3.63;;;;;;;;;;5092090;28;20018;-73
2021/12/23 13:26:15;;;;;;;8.23;3.03;;;;;;;;;;5090127;28;20039;-79
2021/12/23 13:28:50;;;;;;;6.32;3.35;;;;;;;;;;5091314;28;20016;-74
2021/12/23 13:31:18;;;;;;;5.85;3.33;;;;;;;;;;5091892;28;20028;-76
2021/12/23 13:33:46;;;;;;;6.25;3.05;;;;;;;;;;5091891;28;20464;-76
2021/12/23 13:36:22;;;;;;;8.10;4.15;;;;;;;;;;5092896;28;20496;-69
2021/12/23 13:38:49;;;;;;;4.88;2.65;;;;;;;;;;5093007;28;20020;-74
2021/12/23 13:41:18;;;;;;;7.30;3.60;;;;;;;;;;5092720;28;20031;-74
2021/12/23 13:43:44;;;;;;;7.80;3.63;;;;;;;;;;5092962;28;20024;-75
2021/12/23 13:46:10;;;;;;;9.70;3.40;;;;;;;;;;5092701;28;20073;-75
2021/12/23 13:49:12;;;;;;;5.55;2.67;;;;;;;;;;5092763;28;20058;-72
2021/12/23 13:51:39;;;;;;;6.65;3.33;;;;;;;;;;5041957;28;20024;-65
2021/12/23 13:54:08;;;;;;;5.78;3.38;;;;;;;;;;5083907;28;20040;-63
2021/12/23 13:56:35;;;;;;;10.02;3.28;;;;;;;;;;5092514;28;20050;-63
2021/12/23 13:59:10;;;;;;;16.58;3.50;;;;;;;;;;5092290;28;20647;-67
2021/12/23 14:01:50;;;;;;;15.32;3.80;;;;;;;;;;5090930;28;20028;-62
2021/12/23 14:04:34;;;;;;;11.75;4.22;;;;;;;;;;5092422;28;20012;-67
2021/12/23 14:07:00;;;;;;;16.13;3.38;;;;;;;;;;5076721;28;20410;-64
2021/12/23 14:09:45;;;;;;;10.00;4.15;;;;;;;;;;5071956;28;20101;-74
2021/12/23 14:12:13;;;;;;;12.25;3.80;;;;;;;;;;5071993;28;20021;-68
2021/12/23 14:14:50;;;;;;;9.85;3.40;;;;;;;;;;5071959;28;20035;-74
2021/12/23 14:17:23;;;;;;;10.25;3.63;;;;;;;;;;5071780;28;20135;-67
2021/12/23 14:25:34;;;;;;;7.85;3.80;;;;;;;;;;5072326;28;20499;-72
2021/12/23 14:28:00;;;;;;;9.55;3.42;;;;;;;;;;5071770;28;20465;-68
2021/12/23 14:30:40;;;;;;;8.75;3.88;;;;;;;;;;5080567;28;20024;-71
2021/12/23 14:33:10;;;;;;;8.40;3.90;;;;;;;;;;5086803;28;20497;-68
2021/12/23 14:35:36;;;;;;;5.82;2.97;;;;;;;;;;5091051;28;20099;-65
2021/12/23 14:38:02;;;;;;;9.27;3.72;;;;;;;;;;5091715;28;20028;-66
2021/12/23 14:40:28;;;;;;;7.50;3.63;;;;;;;;;;5091534;28;20036;-65
2021/12/23 14:43:13;;;;;;;7.50;3.85;;;;;;;;;;5091556;28;20016;-65
2021/12/23 14:45:42;;;;;;;8.45;3.38;;;;;;;;;;5090354;28;20024;-64
2021/12/23 14:48:13;;;;;;;9.88;4.00;;;;;;;;;;5091437;28;20013;-71
2021/12/23 14:50:51;;;;;;;6.28;3.80;;;;;;;;;;5090135;28;20027;-71
2021/12/23 14:53:18;;;;;;;8.95;3.50;;;;;;;;;;5091646;28;20442;-72
2021/12/23 14:55:52;;;;;;;10.88;3.33;;;;;;;;;;5091673;28;20372;-68
2021/12/23 14:58:18;;;;;;;7.80;3.40;;;;;;;;;;5091616;28;20024;-73
2021/12/23 15:00:46;;;;;;;7.90;3.40;;;;;;;;;;5091432;28;20488;-67
2021/12/23 15:03:22;;;;;;;9.73;4.68;;;;;;;;;;5091006;28;20051;-66
2021/12/23 15:05:50;;;;;;;7.03;4.07;;;;;;;;;;5090021;28;20020;-63
2021/12/23 15:08:16;;;;;;;6.20;3.50;;;;;;;;;;5091326;28;20016;-64
2021/12/23 15:10:42;;;;;;;6.03;3.10;;;;;;;;;;5091440;28;20020;-69
2021/12/23 15:13:18;;;;;;;7.03;3.65;;;;;;;;;;5091357;28;20404;-69
2021/12/23 15:15:46;;;;;;;6.95;3.17;;;;;;;;;;5091066;28;20048;-71
2021/12/23 15:18:34;;;;;;;7.75;3.55;;;;;;;;;;5089853;28;20480;-71
2021/12/23 15:21:04;;;;;;;8.38;4.32;;;;;;;;;;5091270;28;20069;-72
2021/12/23 15:23:45;;;;;;;7.30;3.38;;;;;;;;;;5089951;28;20050;-72
2021/12/23 15:26:23;;;;;;;6.53;3.50;;;;;;;;;;5089991;28;20119;-71
2021/12/23 15:29:22;;;;;;;8.40;4.10;;;;;;;;;;5091113;28;20043;-65
2021/12/23 15:31:53;;;;;;;6.35;3.95;;;;;;;;;;5068023;28;20042;-66
2021/12/23 15:34:19;;;;;;;6.75;3.97;;;;;;;;;;5089670;28;20028;-70
2021/12/23 15:36:45;;;;;;;9.40;4.10;;;;;;;;;;5074207;28;20013;-71
2021/12/23 15:39:16;;;;;;;7.45;3.95;;;;;;;;;;5071031;28;20488;-71
2021/12/23 15:41:42;;;;;;;8.68;3.50;;;;;;;;;;5071015;28;20071;-69
2021/12/23 15:44:08;;;;;;;7.03;3.83;;;;;;;;;;5070788;28;20035;-70
2021/12/23 15:46:34;;;;;;;7.15;4.25;;;;;;;;;;5070775;28;20199;-71
2021/12/23 15:49:00;;;;;;;6.50;4.00;;;;;;;;;;5070682;28;20048;-72